sensor_id;sensor_type;location;lat;lon;timestamp;pressure;altitude;pressure_sealevel;temperature;humidity
41706;BME280;27385;51.096;17.190;2023-03-25T00:00:30;99266.05;;;10.14;74.76
41706;BME280;27385;51.096;17.190;2023-03-25T00:03:21;99267.43;;;10.11;74.65
41706;BME280;27385;51.096;17.190;2023-03-25T00:05:52;99267.35;;;10.06;74.78
41706;BME280;27385;51.096;17.190;2023-03-25T00:08:24;99265.85;;;10.03;74.74
41706;BME280;27385;51.096;17.190;2023-03-25T00:10:55;99261.37;;;9.99;74.75
41706;BME280;27385;51.096;17.190;2023-03-25T00:13:27;99258.02;;;9.96;74.96
41706;BME280;27385;51.096;17.190;2023-03-25T00:16:00;99257.80;;;9.94;74.86
41706;BME280;27385;51.096;17.190;2023-03-25T00:18:32;99258.75;;;9.93;74.82
41706;BME280;27385;51.096;17.190;2023-03-25T00:21:05;99257.12;;;9.91;74.86
41706;BME280;27385;51.096;17.190;2023-03-25T00:23:39;99259.16;;;9.91;74.94
41706;BME280;27385;51.096;17.190;2023-03-25T00:26:11;99253.98;;;9.92;74.91
41706;BME280;27385;51.096;17.190;2023-03-25T00:28:42;99250.43;;;9.91;74.81
41706;BME280;27385;51.096;17.190;2023-03-25T00:31:14;99247.74;;;9.92;75.02
41706;BME280;27385;51.096;17.190;2023-03-25T00:33:45;99242.88;;;9.92;74.94
41706;BME280;27385;51.096;17.190;2023-03-25T00:36:15;99239.58;;;9.92;74.96
41706;BME280;27385;51.096;17.190;2023-03-25T00:38:48;99237.09;;;9.89;75.02
41706;BME280;27385;51.096;17.190;2023-03-25T00:41:21;99237.69;;;9.88;74.93
41706;BME280;27385;51.096;17.190;2023-03-25T00:43:55;99234.34;;;9.85;74.93
41706;BME280;27385;51.096;17.190;2023-03-25T00:46:28;99233.44;;;9.82;74.91
41706;BME280;27385;51.096;17.190;2023-03-25T00:48:59;99234.14;;;9.78;74.97
41706;BME280;27385;51.096;17.190;2023-03-25T00:51:31;99238.59;;;9.76;75.11
41706;BME280;27385;51.096;17.190;2023-03-25T00:54:02;99245.05;;;9.75;74.96
41706;BME280;27385;51.096;17.190;2023-03-25T00:56:33;99241.13;;;9.71;74.86
41706;BME280;27385;51.096;17.190;2023-03-25T00:59:04;99245.67;;;9.68;75.07
41706;BME280;27385;51.096;17.190;2023-03-25T01:01:35;99238.61;;;9.64;75.08
41706;BME280;27385;51.096;17.190;2023-03-25T01:04:08;99236.36;;;9.60;75.25
41706;BME280;27385;51.096;17.190;2023-03-25T01:06:41;99237.39;;;9.57;75.35
41706;BME280;27385;51.096;17.190;2023-03-25T01:09:13;99233.10;;;9.52;75.34
41706;BME280;27385;51.096;17.190;2023-03-25T01:11:45;99239.75;;;9.46;75.37
41706;BME280;27385;51.096;17.190;2023-03-25T01:14:18;99243.21;;;9.43;75.58
41706;BME280;27385;51.096;17.190;2023-03-25T01:16:50;99235.20;;;9.39;75.43
41706;BME280;27385;51.096;17.190;2023-03-25T01:19:21;99228.02;;;9.37;75.54
41706;BME280;27385;51.096;17.190;2023-03-25T01:21:52;99217.73;;;9.35;75.64
41706;BME280;27385;51.096;17.190;2023-03-25T01:24:23;99222.58;;;9.32;75.69
41706;BME280;27385;51.096;17.190;2023-03-25T01:26:55;99217.70;;;9.29;75.70
41706;BME280;27385;51.096;17.190;2023-03-25T01:29:26;99218.69;;;9.27;75.65
41706;BME280;27385;51.096;17.190;2023-03-25T01:31:57;99213.36;;;9.27;75.83
41706;BME280;27385;51.096;17.190;2023-03-25T01:34:30;99219.48;;;9.26;75.75
41706;BME280;27385;51.096;17.190;2023-03-25T01:37:01;99223.72;;;9.23;75.81
41706;BME280;27385;51.096;17.190;2023-03-25T01:39:31;99223.80;;;9.21;75.83
41706;BME280;27385;51.096;17.190;2023-03-25T01:42:03;99219.79;;;9.19;75.84
41706;BME280;27385;51.096;17.190;2023-03-25T01:47:58;99208.70;;;9.08;75.90
41706;BME280;27385;51.096;17.190;2023-03-25T01:50:31;99206.97;;;9.04;76.06
41706;BME280;27385;51.096;17.190;2023-03-25T01:53:05;99204.77;;;9.03;76.13
41706;BME280;27385;51.096;17.190;2023-03-25T01:55:38;99200.27;;;8.98;76.17
41706;BME280;27385;51.096;17.190;2023-03-25T01:58:12;99195.39;;;8.94;76.34
41706;BME280;27385;51.096;17.190;2023-03-25T02:00:46;99190.07;;;8.93;76.24
41706;BME280;27385;51.096;17.190;2023-03-25T02:03:21;99191.92;;;8.93;76.33
41706;BME280;27385;51.096;17.190;2023-03-25T02:05:58;99191.88;;;8.92;76.41
41706;BME280;27385;51.096;17.190;2023-03-25T02:08:33;99189.20;;;8.92;76.35
41706;BME280;27385;51.096;17.190;2023-03-25T02:11:07;99190.36;;;8.92;76.30
41706;BME280;27385;51.096;17.190;2023-03-25T02:13:39;99182.20;;;8.92;76.44
41706;BME280;27385;51.096;17.190;2023-03-25T02:16:27;99178.55;;;8.92;76.52
41706;BME280;27385;51.096;17.190;2023-03-25T02:19:19;99179.46;;;8.91;76.43
41706;BME280;27385;51.096;17.190;2023-03-25T02:22:33;99174.09;;;8.89;76.40
41706;BME280;27385;51.096;17.190;2023-03-25T02:25:20;99182.57;;;8.86;76.32
41706;BME280;27385;51.096;17.190;2023-03-25T02:28:03;99182.47;;;8.82;76.37
41706;BME280;27385;51.096;17.190;2023-03-25T02:30:54;99182.96;;;8.80;76.52
41706;BME280;27385;51.096;17.190;2023-03-25T02:33:40;99180.35;;;8.77;76.50
41706;BME280;27385;51.096;17.190;2023-03-25T02:39:15;99181.61;;;8.70;76.49
41706;BME280;27385;51.096;17.190;2023-03-25T02:41:52;99179.83;;;8.69;76.84
41706;BME280;27385;51.096;17.190;2023-03-25T02:44:31;99176.11;;;8.66;76.68
41706;BME280;27385;51.096;17.190;2023-03-25T02:47:08;99175.54;;;8.65;76.73
41706;BME280;27385;51.096;17.190;2023-03-25T02:49:41;99175.05;;;8.62;76.71
41706;BME280;27385;51.096;17.190;2023-03-25T02:52:16;99175.05;;;8.61;76.60
41706;BME280;27385;51.096;17.190;2023-03-25T02:54:51;99177.61;;;8.60;76.82
41706;BME280;27385;51.096;17.190;2023-03-25T02:57:27;99179.13;;;8.58;76.69
41706;BME280;27385;51.096;17.190;2023-03-25T03:00:01;99184.16;;;8.57;76.87
41706;BME280;27385;51.096;17.190;2023-03-25T03:02:43;99182.54;;;8.56;76.89
41706;BME280;27385;51.096;17.190;2023-03-25T03:05:26;99180.95;;;8.55;76.80
41706;BME280;27385;51.096;17.190;2023-03-25T03:08:11;99180.56;;;8.52;76.78
41706;BME280;27385;51.096;17.190;2023-03-25T03:10:50;99183.87;;;8.49;76.86
41706;BME280;27385;51.096;17.190;2023-03-25T03:13:32;99179.54;;;8.46;76.89
41706;BME280;27385;51.096;17.190;2023-03-25T03:16:15;99178.98;;;8.45;76.95
41706;BME280;27385;51.096;17.190;2023-03-25T03:18:53;99177.50;;;8.44;77.12
41706;BME280;27385;51.096;17.190;2023-03-25T03:21:33;99177.31;;;8.41;77.06
41706;BME280;27385;51.096;17.190;2023-03-25T03:24:11;99176.60;;;8.40;76.96
41706;BME280;27385;51.096;17.190;2023-03-25T03:26:49;99180.88;;;8.39;77.15
41706;BME280;27385;51.096;17.190;2023-03-25T03:29:28;99178.91;;;8.38;77.18
41706;BME280;27385;51.096;17.190;2023-03-25T03:32:03;99180.86;;;8.36;77.33
41706;BME280;27385;51.096;17.190;2023-03-25T03:34:42;99185.20;;;8.35;77.29
41706;BME280;27385;51.096;17.190;2023-03-25T03:37:17;99192.02;;;8.35;77.33
41706;BME280;27385;51.096;17.190;2023-03-25T03:39:52;99193.67;;;8.34;77.40
41706;BME280;27385;51.096;17.190;2023-03-25T03:42:29;99192.80;;;8.33;77.47
41706;BME280;27385;51.096;17.190;2023-03-25T03:45:09;99194.34;;;8.31;77.45
41706;BME280;27385;51.096;17.190;2023-03-25T03:47:45;99192.70;;;8.28;77.81
41706;BME280;27385;51.096;17.190;2023-03-25T03:50:21;99190.98;;;8.26;77.78
41706;BME280;27385;51.096;17.190;2023-03-25T03:52:57;99196.25;;;8.23;77.81
41706;BME280;27385;51.096;17.190;2023-03-25T03:55:34;99196.77;;;8.20;77.83
41706;BME280;27385;51.096;17.190;2023-03-25T03:58:10;99199.55;;;8.20;77.93
41706;BME280;27385;51.096;17.190;2023-03-25T04:00:46;99200.10;;;8.19;78.05
41706;BME280;27385;51.096;17.190;2023-03-25T04:03:21;99197.83;;;8.14;78.13
41706;BME280;27385;51.096;17.190;2023-03-25T04:06:02;99198.88;;;8.13;78.02
41706;BME280;27385;51.096;17.190;2023-03-25T04:08:39;99198.32;;;8.14;78.08
41706;BME280;27385;51.096;17.190;2023-03-25T04:11:19;99201.36;;;8.14;78.06
41706;BME280;27385;51.096;17.190;2023-03-25T04:13:54;99196.35;;;8.14;78.13
41706;BME280;27385;51.096;17.190;2023-03-25T04:16:27;99198.42;;;8.14;78.00
41706;BME280;27385;51.096;17.190;2023-03-25T04:18:58;99198.52;;;8.13;78.16
41706;BME280;27385;51.096;17.190;2023-03-25T04:21:29;99200.58;;;8.12;78.13
41706;BME280;27385;51.096;17.190;2023-03-25T04:23:59;99196.45;;;8.10;78.11
41706;BME280;27385;51.096;17.190;2023-03-25T04:26:30;99196.45;;;8.10;78.19
41706;BME280;27385;51.096;17.190;2023-03-25T04:29:02;99196.36;;;8.07;78.36
41706;BME280;27385;51.096;17.190;2023-03-25T04:31:33;99197.14;;;8.03;78.17
41706;BME280;27385;51.096;17.190;2023-03-25T04:34:04;99201.94;;;8.00;78.53
41706;BME280;27385;51.096;17.190;2023-03-25T04:36:36;99202.02;;;7.99;78.42
41706;BME280;27385;51.096;17.190;2023-03-25T04:39:07;99199.30;;;7.99;78.47
41706;BME280;27385;51.096;17.190;2023-03-25T04:41:38;99198.45;;;7.99;78.40
41706;BME280;27385;51.096;17.190;2023-03-25T04:44:09;99198.79;;;7.98;78.33
41706;BME280;27385;51.096;17.190;2023-03-25T04:46:41;99207.97;;;7.97;78.28
41706;BME280;27385;51.096;17.190;2023-03-25T04:49:18;99207.64;;;7.95;78.38
41706;BME280;27385;51.096;17.190;2023-03-25T04:51:50;99211.80;;;7.93;78.49
41706;BME280;27385;51.096;17.190;2023-03-25T04:54:22;99209.77;;;7.89;78.50
41706;BME280;27385;51.096;17.190;2023-03-25T04:56:53;99210.80;;;7.86;78.72
41706;BME280;27385;51.096;17.190;2023-03-25T04:59:25;99211.91;;;7.82;78.75
41706;BME280;27385;51.096;17.190;2023-03-25T05:01:57;99214.93;;;7.81;78.95
41706;BME280;27385;51.096;17.190;2023-03-25T05:04:27;99213.98;;;7.79;78.91
41706;BME280;27385;51.096;17.190;2023-03-25T05:06:58;99218.45;;;7.76;79.03
41706;BME280;27385;51.096;17.190;2023-03-25T05:09:29;99213.22;;;7.73;79.15
41706;BME280;27385;51.096;17.190;2023-03-25T05:12:00;99214.65;;;7.71;79.13
41706;BME280;27385;51.096;17.190;2023-03-25T05:14:31;99209.88;;;7.69;79.24
41706;BME280;27385;51.096;17.190;2023-03-25T05:17:01;99213.94;;;7.67;79.39
41706;BME280;27385;51.096;17.190;2023-03-25T05:19:33;99209.34;;;7.65;79.46
41706;BME280;27385;51.096;17.190;2023-03-25T05:22:04;99208.75;;;7.61;79.57
41706;BME280;27385;51.096;17.190;2023-03-25T05:24:37;99208.87;;;7.59;79.70
41706;BME280;27385;51.096;17.190;2023-03-25T05:27:08;99207.98;;;7.58;79.75
41706;BME280;27385;51.096;17.190;2023-03-25T05:29:39;99208.23;;;7.57;79.77
41706;BME280;27385;51.096;17.190;2023-03-25T05:32:13;99209.11;;;7.58;79.73
41706;BME280;27385;51.096;17.190;2023-03-25T05:34:46;99210.23;;;7.59;79.76
41706;BME280;27385;51.096;17.190;2023-03-25T05:37:16;99210.73;;;7.60;79.83
41706;BME280;27385;51.096;17.190;2023-03-25T05:39:47;99211.92;;;7.61;79.86
41706;BME280;27385;51.096;17.190;2023-03-25T05:42:20;99211.89;;;7.62;80.00
41706;BME280;27385;51.096;17.190;2023-03-25T05:44:52;99205.83;;;7.62;80.02
41706;BME280;27385;51.096;17.190;2023-03-25T05:47:24;99204.45;;;7.64;80.06
41706;BME280;27385;51.096;17.190;2023-03-25T05:49:57;99204.55;;;7.65;80.36
41706;BME280;27385;51.096;17.190;2023-03-25T05:52:28;99203.30;;;7.65;80.35
41706;BME280;27385;51.096;17.190;2023-03-25T05:54:59;99201.39;;;7.66;80.56
41706;BME280;27385;51.096;17.190;2023-03-25T05:57:31;99206.60;;;7.67;80.60
41706;BME280;27385;51.096;17.190;2023-03-25T06:00:02;99214.08;;;7.68;81.11
41706;BME280;27385;51.096;17.190;2023-03-25T06:02:37;99217.02;;;7.68;81.07
41706;BME280;27385;51.096;17.190;2023-03-25T06:05:09;99220.66;;;7.69;81.32
41706;BME280;27385;51.096;17.190;2023-03-25T06:07:42;99223.59;;;7.72;81.50
41706;BME280;27385;51.096;17.190;2023-03-25T06:10:14;99226.88;;;7.75;81.79
41706;BME280;27385;51.096;17.190;2023-03-25T06:12:46;99232.38;;;7.78;81.95
41706;BME280;27385;51.096;17.190;2023-03-25T06:15:19;99228.14;;;7.83;82.12
41706;BME280;27385;51.096;17.190;2023-03-25T06:18:01;99227.61;;;7.89;82.16
41706;BME280;27385;51.096;17.190;2023-03-25T06:20:32;99225.39;;;7.97;82.46
41706;BME280;27385;51.096;17.190;2023-03-25T06:23:03;99226.92;;;8.06;82.44
41706;BME280;27385;51.096;17.190;2023-03-25T06:25:35;99227.44;;;8.13;82.50
41706;BME280;27385;51.096;17.190;2023-03-25T06:28:06;99225.38;;;8.23;82.65
41706;BME280;27385;51.096;17.190;2023-03-25T06:30:37;99226.23;;;8.33;82.76
41706;BME280;27385;51.096;17.190;2023-03-25T06:33:11;99226.05;;;8.45;83.02
41706;BME280;27385;51.096;17.190;2023-03-25T06:35:45;99230.47;;;8.60;83.10
41706;BME280;27385;51.096;17.190;2023-03-25T06:38:18;99231.28;;;8.75;83.30
41706;BME280;27385;51.096;17.190;2023-03-25T06:40:50;99233.05;;;8.91;83.26
41706;BME280;27385;51.096;17.190;2023-03-25T06:43:21;99232.86;;;9.09;83.31
41706;BME280;27385;51.096;17.190;2023-03-25T06:45:52;99226.76;;;9.22;83.14
41706;BME280;27385;51.096;17.190;2023-03-25T06:48:23;99227.31;;;9.36;82.97
41706;BME280;27385;51.096;17.190;2023-03-25T06:50:54;99226.05;;;9.49;83.03
41706;BME280;27385;51.096;17.190;2023-03-25T06:53:25;99219.80;;;9.61;82.52
41706;BME280;27385;51.096;17.190;2023-03-25T06:55:58;99216.30;;;9.70;82.66
41706;BME280;27385;51.096;17.190;2023-03-25T06:58:29;99216.36;;;9.80;82.65
41706;BME280;27385;51.096;17.190;2023-03-25T07:01:04;99216.02;;;9.89;82.45
41706;BME280;27385;51.096;17.190;2023-03-25T07:03:36;99208.28;;;9.96;82.23
41706;BME280;27385;51.096;17.190;2023-03-25T07:06:08;99201.96;;;10.01;82.07
41706;BME280;27385;51.096;17.190;2023-03-25T07:08:44;99206.11;;;10.08;81.95
41706;BME280;27385;51.096;17.190;2023-03-25T07:11:17;99216.00;;;10.14;81.86
41706;BME280;27385;51.096;17.190;2023-03-25T07:13:50;99224.50;;;10.20;81.75
41706;BME280;27385;51.096;17.190;2023-03-25T07:16:23;99229.69;;;10.23;81.49
41706;BME280;27385;51.096;17.190;2023-03-25T07:18:54;99227.05;;;10.26;81.65
41706;BME280;27385;51.096;17.190;2023-03-25T07:21:26;99221.94;;;10.28;82.01
41706;BME280;27385;51.096;17.190;2023-03-25T07:23:57;99217.08;;;10.30;82.12
41706;BME280;27385;51.096;17.190;2023-03-25T07:26:28;99215.97;;;10.32;82.24
41706;BME280;27385;51.096;17.190;2023-03-25T07:28:58;99216.34;;;10.35;82.23
41706;BME280;27385;51.096;17.190;2023-03-25T07:31:29;99214.88;;;10.39;82.09
41706;BME280;27385;51.096;17.190;2023-03-25T07:34:00;99211.74;;;10.43;82.02
41706;BME280;27385;51.096;17.190;2023-03-25T07:36:31;99212.15;;;10.47;81.80
41706;BME280;27385;51.096;17.190;2023-03-25T07:39:02;99209.48;;;10.50;81.61
41706;BME280;27385;51.096;17.190;2023-03-25T07:41:34;99215.77;;;10.53;81.94
41706;BME280;27385;51.096;17.190;2023-03-25T07:44:05;99218.22;;;10.54;81.67
41706;BME280;27385;51.096;17.190;2023-03-25T07:46:36;99221.77;;;10.54;81.76
41706;BME280;27385;51.096;17.190;2023-03-25T07:49:07;99228.16;;;10.55;81.50
41706;BME280;27385;51.096;17.190;2023-03-25T07:51:38;99228.03;;;10.56;81.63
41706;BME280;27385;51.096;17.190;2023-03-25T07:54:09;99228.28;;;10.58;81.75
41706;BME280;27385;51.096;17.190;2023-03-25T07:56:40;99220.77;;;10.61;81.68
41706;BME280;27385;51.096;17.190;2023-03-25T07:59:11;99218.90;;;10.64;81.61
41706;BME280;27385;51.096;17.190;2023-03-25T08:01:41;99219.92;;;10.67;81.46
41706;BME280;27385;51.096;17.190;2023-03-25T08:04:13;99220.59;;;10.70;81.34
41706;BME280;27385;51.096;17.190;2023-03-25T08:06:44;99218.35;;;10.71;81.05
41706;BME280;27385;51.096;17.190;2023-03-25T08:09:15;99218.16;;;10.73;80.95
41706;BME280;27385;51.096;17.190;2023-03-25T08:11:45;99216.34;;;10.78;80.49
41706;BME280;27385;51.096;17.190;2023-03-25T08:14:17;99215.23;;;10.83;80.28
41706;BME280;27385;51.096;17.190;2023-03-25T08:16:48;99211.39;;;10.89;80.07
41706;BME280;27385;51.096;17.190;2023-03-25T08:19:19;99217.13;;;10.96;79.94
41706;BME280;27385;51.096;17.190;2023-03-25T08:21:50;99219.06;;;11.03;79.91
41706;BME280;27385;51.096;17.190;2023-03-25T08:24:21;99219.83;;;11.09;79.67
41706;BME280;27385;51.096;17.190;2023-03-25T08:26:53;99225.06;;;11.14;79.13
41706;BME280;27385;51.096;17.190;2023-03-25T08:29:24;99224.40;;;11.19;79.27
41706;BME280;27385;51.096;17.190;2023-03-25T08:31:56;99224.10;;;11.24;79.31
41706;BME280;27385;51.096;17.190;2023-03-25T08:34:28;99224.40;;;11.33;79.12
41706;BME280;27385;51.096;17.190;2023-03-25T08:37:03;99220.89;;;11.48;79.43
41706;BME280;27385;51.096;17.190;2023-03-25T08:39:36;99219.20;;;11.68;79.27
41706;BME280;27385;51.096;17.190;2023-03-25T08:42:08;99218.70;;;11.91;78.99
41706;BME280;27385;51.096;17.190;2023-03-25T08:44:40;99211.48;;;12.08;78.35
41706;BME280;27385;51.096;17.190;2023-03-25T08:47:11;99213.77;;;12.24;78.06
41706;BME280;27385;51.096;17.190;2023-03-25T08:49:42;99215.19;;;12.35;77.58
41706;BME280;27385;51.096;17.190;2023-03-25T08:52:13;99212.43;;;12.46;77.11
41706;BME280;27385;51.096;17.190;2023-03-25T08:54:45;99213.61;;;12.57;76.24
41706;BME280;27385;51.096;17.190;2023-03-25T08:57:16;99210.50;;;12.64;76.29
41706;BME280;27385;51.096;17.190;2023-03-25T08:59:48;99208.59;;;12.68;75.12
41706;BME280;27385;51.096;17.190;2023-03-25T09:02:19;99206.50;;;12.68;74.47
41706;BME280;27385;51.096;17.190;2023-03-25T09:04:50;99207.02;;;12.67;73.64
41706;BME280;27385;51.096;17.190;2023-03-25T09:07:21;99205.11;;;12.64;72.49
41706;BME280;27385;51.096;17.190;2023-03-25T09:09:52;99207.32;;;12.59;72.52
41706;BME280;27385;51.096;17.190;2023-03-25T09:12:22;99200.84;;;12.54;72.88
41706;BME280;27385;51.096;17.190;2023-03-25T09:14:53;99200.45;;;12.50;72.52
41706;BME280;27385;51.096;17.190;2023-03-25T09:17:25;99200.52;;;12.46;71.86
41706;BME280;27385;51.096;17.190;2023-03-25T09:19:56;99199.07;;;12.41;71.90
41706;BME280;27385;51.096;17.190;2023-03-25T09:22:28;99195.73;;;12.37;71.47
41706;BME280;27385;51.096;17.190;2023-03-25T09:24:58;99194.83;;;12.35;71.30
41706;BME280;27385;51.096;17.190;2023-03-25T09:27:30;99196.31;;;12.34;71.79
41706;BME280;27385;51.096;17.190;2023-03-25T09:30:00;99199.01;;;12.34;71.62
41706;BME280;27385;51.096;17.190;2023-03-25T09:32:31;99203.42;;;12.34;71.73
41706;BME280;27385;51.096;17.190;2023-03-25T09:35:03;99200.69;;;12.32;71.13
41706;BME280;27385;51.096;17.190;2023-03-25T09:37:34;99204.78;;;12.29;70.54
41706;BME280;27385;51.096;17.190;2023-03-25T09:40:08;99200.77;;;12.27;71.15
41706;BME280;27385;51.096;17.190;2023-03-25T09:42:51;99202.30;;;12.24;71.53
41706;BME280;27385;51.096;17.190;2023-03-25T09:45:33;99205.88;;;12.22;71.20
41706;BME280;27385;51.096;17.190;2023-03-25T09:48:08;99205.58;;;12.24;71.43
41706;BME280;27385;51.096;17.190;2023-03-25T09:50:46;99201.02;;;12.29;71.05
41706;BME280;27385;51.096;17.190;2023-03-25T09:53:24;99200.36;;;12.36;70.66
41706;BME280;27385;51.096;17.190;2023-03-25T09:55:56;99204.95;;;12.46;70.20
41706;BME280;27385;51.096;17.190;2023-03-25T09:58:33;99204.19;;;12.55;69.78
41706;BME280;27385;51.096;17.190;2023-03-25T10:01:16;99204.65;;;12.63;69.31
41706;BME280;27385;51.096;17.190;2023-03-25T10:03:56;99197.90;;;12.69;68.39
41706;BME280;27385;51.096;17.190;2023-03-25T10:06:31;99200.29;;;12.71;67.70
41706;BME280;27385;51.096;17.190;2023-03-25T10:09:19;99195.80;;;12.69;67.12
41706;BME280;27385;51.096;17.190;2023-03-25T10:11:55;99198.16;;;12.65;66.77
41706;BME280;27385;51.096;17.190;2023-03-25T10:14:31;99199.30;;;12.63;67.20
41706;BME280;27385;51.096;17.190;2023-03-25T10:17:15;99199.80;;;12.64;66.95
41706;BME280;27385;51.096;17.190;2023-03-25T10:19:57;99197.48;;;12.63;66.13
41706;BME280;27385;51.096;17.190;2023-03-25T10:22:37;99195.02;;;12.63;64.70
41706;BME280;27385;51.096;17.190;2023-03-25T10:25:13;99190.74;;;12.64;64.33
41706;BME280;27385;51.096;17.190;2023-03-25T10:27:47;99184.46;;;12.67;63.34
41706;BME280;27385;51.096;17.190;2023-03-25T10:30:22;99182.31;;;12.70;63.60
41706;BME280;27385;51.096;17.190;2023-03-25T10:32:55;99182.81;;;12.72;63.56
41706;BME280;27385;51.096;17.190;2023-03-25T10:35:29;99186.21;;;12.72;63.07
41706;BME280;27385;51.096;17.190;2023-03-25T10:38:03;99183.75;;;12.68;62.75
41706;BME280;27385;51.096;17.190;2023-03-25T10:40:39;99187.42;;;12.60;63.55
41706;BME280;27385;51.096;17.190;2023-03-25T10:43:20;99185.54;;;12.49;63.78
41706;BME280;27385;51.096;17.190;2023-03-25T10:45:57;99175.52;;;12.46;64.11
41706;BME280;27385;51.096;17.190;2023-03-25T10:48:31;99173.51;;;12.51;63.91
41706;BME280;27385;51.096;17.190;2023-03-25T10:51:06;99167.49;;;12.61;63.77
41706;BME280;27385;51.096;17.190;2023-03-25T10:53:38;99168.80;;;12.74;62.85
41706;BME280;27385;51.096;17.190;2023-03-25T10:56:13;99170.20;;;12.82;62.55
41706;BME280;27385;51.096;17.190;2023-03-25T10:58:47;99171.48;;;12.88;61.93
41706;BME280;27385;51.096;17.190;2023-03-25T11:01:21;99171.79;;;12.95;62.03
41706;BME280;27385;51.096;17.190;2023-03-25T11:03:58;99170.44;;;13.09;61.76
41706;BME280;27385;51.096;17.190;2023-03-25T11:06:32;99165.73;;;13.18;60.75
41706;BME280;27385;51.096;17.190;2023-03-25T11:09:21;99164.59;;;13.20;60.91
41706;BME280;27385;51.096;17.190;2023-03-25T11:11:53;99158.64;;;13.25;60.93
41706;BME280;27385;51.096;17.190;2023-03-25T11:14:25;99162.64;;;13.28;60.42
41706;BME280;27385;51.096;17.190;2023-03-25T11:16:58;99155.70;;;13.29;59.70
41706;BME280;27385;51.096;17.190;2023-03-25T11:19:38;99147.52;;;13.25;59.69
41706;BME280;27385;51.096;17.190;2023-03-25T11:22:11;99144.65;;;13.20;59.33
41706;BME280;27385;51.096;17.190;2023-03-25T11:24:47;99139.74;;;13.23;60.08
41706;BME280;27385;51.096;17.190;2023-03-25T11:27:20;99137.55;;;13.23;59.47
41706;BME280;27385;51.096;17.190;2023-03-25T11:29:54;99137.45;;;13.19;59.33
41706;BME280;27385;51.096;17.190;2023-03-25T11:32:32;99133.95;;;13.21;59.44
41706;BME280;27385;51.096;17.190;2023-03-25T11:35:14;99134.05;;;13.27;58.65
41706;BME280;27385;51.096;17.190;2023-03-25T11:37:47;99133.14;;;13.26;57.96
41706;BME280;27385;51.096;17.190;2023-03-25T11:40:19;99134.63;;;13.26;57.91
41706;BME280;27385;51.096;17.190;2023-03-25T11:42:53;99134.91;;;13.27;58.32
41706;BME280;27385;51.096;17.190;2023-03-25T11:45:31;99134.29;;;13.30;57.65
41706;BME280;27385;51.096;17.190;2023-03-25T11:48:11;99131.39;;;13.34;56.88
41706;BME280;27385;51.096;17.190;2023-03-25T11:50:47;99122.67;;;13.39;56.82
41706;BME280;27385;51.096;17.190;2023-03-25T11:53:22;99121.89;;;13.45;57.15
41706;BME280;27385;51.096;17.190;2023-03-25T11:55:56;99125.98;;;13.50;56.81
41706;BME280;27385;51.096;17.190;2023-03-25T11:58:31;99132.42;;;13.56;56.02
41706;BME280;27385;51.096;17.190;2023-03-25T12:01:19;99133.85;;;13.60;55.60
41706;BME280;27385;51.096;17.190;2023-03-25T12:03:51;99130.78;;;13.63;55.83
41706;BME280;27385;51.096;17.190;2023-03-25T12:06:23;99133.59;;;13.67;56.15
41706;BME280;27385;51.096;17.190;2023-03-25T12:08:57;99130.45;;;13.73;55.19
41706;BME280;27385;51.096;17.190;2023-03-25T12:11:31;99124.06;;;13.78;55.03
41706;BME280;27385;51.096;17.190;2023-03-25T12:14:25;99123.27;;;13.80;54.73
41706;BME280;27385;51.096;17.190;2023-03-25T12:17:05;99124.91;;;13.76;54.84
41706;BME280;27385;51.096;17.190;2023-03-25T12:19:46;99127.27;;;13.72;53.86
41706;BME280;27385;51.096;17.190;2023-03-25T12:22:28;99130.67;;;13.64;54.02
41706;BME280;27385;51.096;17.190;2023-03-25T12:25:12;99141.98;;;13.56;54.09
41706;BME280;27385;51.096;17.190;2023-03-25T12:27:58;99161.70;;;13.46;54.41
41706;BME280;27385;51.096;17.190;2023-03-25T12:30:43;99169.03;;;13.20;54.62
41706;BME280;27385;51.096;17.190;2023-03-25T12:33:35;99173.45;;;12.83;55.14
41706;BME280;27385;51.096;17.190;2023-03-25T12:36:24;99181.26;;;12.52;55.78
41706;BME280;27385;51.096;17.190;2023-03-25T12:39:06;99184.80;;;12.27;56.49
41706;BME280;27385;51.096;17.190;2023-03-25T12:41:44;99193.98;;;12.07;57.09
41706;BME280;27385;51.096;17.190;2023-03-25T12:44:33;99200.35;;;11.90;57.82
41706;BME280;27385;51.096;17.190;2023-03-25T12:47:17;99206.84;;;11.75;58.84
41706;BME280;27385;51.096;17.190;2023-03-25T12:50:05;99216.56;;;11.53;60.98
41706;BME280;27385;51.096;17.190;2023-03-25T12:52:46;99219.27;;;11.19;62.66
41706;BME280;27385;51.096;17.190;2023-03-25T12:55:50;99219.96;;;10.91;64.11
41706;BME280;27385;51.096;17.190;2023-03-25T13:01:21;99222.77;;;10.46;66.68
41706;BME280;27385;51.096;17.190;2023-03-25T13:04:19;99217.20;;;10.34;67.92
41706;BME280;27385;51.096;17.190;2023-03-25T13:06:59;99218.41;;;10.23;68.14
41706;BME280;27385;51.096;17.190;2023-03-25T13:09:39;99215.86;;;10.18;68.93
41706;BME280;27385;51.096;17.190;2023-03-25T13:12:16;99215.86;;;10.17;70.05
41706;BME280;27385;51.096;17.190;2023-03-25T13:14:56;99212.01;;;10.17;70.31
41706;BME280;27385;51.096;17.190;2023-03-25T13:17:33;99215.73;;;10.25;71.43
41706;BME280;27385;51.096;17.190;2023-03-25T13:20:10;99207.77;;;10.37;71.26
41706;BME280;27385;51.096;17.190;2023-03-25T13:22:44;99197.71;;;10.47;71.15
41706;BME280;27385;51.096;17.190;2023-03-25T13:25:21;99193.36;;;10.61;71.95
41706;BME280;27385;51.096;17.190;2023-03-25T13:27:56;99187.82;;;10.81;72.31
41706;BME280;27385;51.096;17.190;2023-03-25T13:30:32;99187.92;;;10.95;71.05
41706;BME280;27385;51.096;17.190;2023-03-25T13:33:09;99190.73;;;11.01;69.66
41706;BME280;27385;51.096;17.190;2023-03-25T13:35:45;99189.25;;;11.03;69.15
41706;BME280;27385;51.096;17.190;2023-03-25T13:38:20;99180.98;;;11.04;68.85
41706;BME280;27385;51.096;17.190;2023-03-25T13:41:06;99172.86;;;11.05;68.67
41706;BME280;27385;51.096;17.190;2023-03-25T13:43:44;99171.73;;;11.07;68.13